sensor_id;sensor_type;location;lat;lon;timestamp;pressure;altitude;pressure_sealevel;temperature;humidity
48404;BME280;34202;52.536;6.042;2023-08-21T00:00:29;102406.98;;;17.97;87.37
48404;BME280;34202;52.536;6.042;2023-08-21T00:05:30;102404.52;;;17.91;88.05
48404;BME280;34202;52.536;6.042;2023-08-21T00:10:30;102405.00;;;17.85;88.44
48404;BME280;34202;52.536;6.042;2023-08-21T00:15:33;102406.40;;;17.79;88.88
48404;BME280;34202;52.536;6.042;2023-08-21T00:20:34;102409.37;;;17.73;89.23
48404;BME280;34202;52.536;6.042;2023-08-21T00:25:35;102413.95;;;17.67;89.79
48404;BME280;34202;52.536;6.042;2023-08-21T00:30:35;102410.94;;;17.61;90.12
48404;BME280;34202;52.536;6.042;2023-08-21T00:35:36;102413.73;;;17.55;89.52
48404;BME280;34202;52.536;6.042;2023-08-21T00:40:36;102410.20;;;17.50;90.08
48404;BME280;34202;52.536;6.042;2023-08-21T00:45:38;102412.13;;;17.45;90.80
48404;BME280;34202;52.536;6.042;2023-08-21T00:50:42;102407.88;;;17.39;91.11
48404;BME280;34202;52.536;6.042;2023-08-21T00:55:43;102403.98;;;17.33;91.58
48404;BME280;34202;52.536;6.042;2023-08-21T01:00:46;102407.13;;;17.27;91.87
48404;BME280;34202;52.536;6.042;2023-08-21T01:05:50;102409.92;;;17.23;91.96
48404;BME280;34202;52.536;6.042;2023-08-21T01:10:55;102404.27;;;17.17;92.43
48404;BME280;34202;52.536;6.042;2023-08-21T01:15:57;102407.61;;;17.14;92.94
48404;BME280;34202;52.536;6.042;2023-08-21T01:20:57;102416.39;;;17.10;93.42
48404;BME280;34202;52.536;6.042;2023-08-21T01:25:59;102414.09;;;17.07;93.84
48404;BME280;34202;52.536;6.042;2023-08-21T01:31:15;102412.48;;;17.04;94.08
48404;BME280;34202;52.536;6.042;2023-08-21T01:36:20;102417.57;;;17.00;94.43
48404;BME280;34202;52.536;6.042;2023-08-21T01:41:23;102415.96;;;16.96;94.54
48404;BME280;34202;52.536;6.042;2023-08-21T01:46:24;102424.73;;;16.93;94.85
48404;BME280;34202;52.536;6.042;2023-08-21T01:51:25;102425.95;;;16.89;94.88
48404;BME280;34202;52.536;6.042;2023-08-21T01:56:25;102423.11;;;16.85;95.03
48404;BME280;34202;52.536;6.042;2023-08-21T02:01:26;102422.02;;;16.82;95.24
48404;BME280;34202;52.536;6.042;2023-08-21T02:06:26;102423.74;;;16.78;95.46
48404;BME280;34202;52.536;6.042;2023-08-21T02:11:27;102420.20;;;16.74;95.74
48404;BME280;34202;52.536;6.042;2023-08-21T02:16:27;102425.80;;;16.71;95.93
48404;BME280;34202;52.536;6.042;2023-08-21T02:21:27;102420.83;;;16.62;96.58
48404;BME280;34202;52.536;6.042;2023-08-21T02:26:28;102421.32;;;16.57;96.70
48404;BME280;34202;52.536;6.042;2023-08-21T02:31:29;102423.23;;;16.53;96.95
48404;BME280;34202;52.536;6.042;2023-08-21T02:36:29;102420.73;;;16.49;97.20
48404;BME280;34202;52.536;6.042;2023-08-21T02:41:30;102419.48;;;16.45;97.26
48404;BME280;34202;52.536;6.042;2023-08-21T02:46:30;102421.38;;;16.42;97.31
48404;BME280;34202;52.536;6.042;2023-08-21T02:51:33;102434.19;;;16.39;97.46
48404;BME280;34202;52.536;6.042;2023-08-21T02:56:34;102431.89;;;16.36;97.59
48404;BME280;34202;52.536;6.042;2023-08-21T03:01:34;102432.92;;;16.34;97.87
48404;BME280;34202;52.536;6.042;2023-08-21T03:06:35;102430.08;;;16.31;98.05
48404;BME280;34202;52.536;6.042;2023-08-21T03:11:36;102428.14;;;16.29;98.28
48404;BME280;34202;52.536;6.042;2023-08-21T03:16:36;102430.91;;;16.25;98.45
48404;BME280;34202;52.536;6.042;2023-08-21T03:21:37;102431.58;;;16.22;98.76
48404;BME280;34202;52.536;6.042;2023-08-21T03:26:38;102426.45;;;16.17;99.22
48404;BME280;34202;52.536;6.042;2023-08-21T03:31:38;102423.08;;;16.14;99.23
48404;BME280;34202;52.536;6.042;2023-08-21T03:36:39;102418.14;;;16.12;99.60
48404;BME280;34202;52.536;6.042;2023-08-21T03:41:40;102418.14;;;16.11;99.89
48404;BME280;34202;52.536;6.042;2023-08-21T03:46:40;102414.63;;;16.10;99.99
48404;BME280;34202;52.536;6.042;2023-08-21T03:51:41;102407.58;;;16.10;100.00
48404;BME280;34202;52.536;6.042;2023-08-21T03:56:41;102403.36;;;16.08;100.00
48404;BME280;34202;52.536;6.042;2023-08-21T04:01:42;102401.58;;;16.05;100.00
48404;BME280;34202;52.536;6.042;2023-08-21T04:06:42;102403.66;;;16.01;100.00
48404;BME280;34202;52.536;6.042;2023-08-21T04:11:42;102408.02;;;15.98;100.00
48404;BME280;34202;52.536;6.042;2023-08-21T04:16:43;102407.96;;;15.94;100.00
48404;BME280;34202;52.536;6.042;2023-08-21T04:21:44;102410.39;;;15.89;100.00
48404;BME280;34202;52.536;6.042;2023-08-21T04:26:44;102418.41;;;15.85;100.00
48404;BME280;34202;52.536;6.042;2023-08-21T04:31:45;102423.48;;;15.82;100.00
48404;BME280;34202;52.536;6.042;2023-08-21T04:36:46;102421.19;;;15.80;100.00
48404;BME280;34202;52.536;6.042;2023-08-21T04:41:47;102425.91;;;15.78;100.00
48404;BME280;34202;52.536;6.042;2023-08-21T04:46:48;102428.18;;;15.77;100.00
48404;BME280;34202;52.536;6.042;2023-08-21T04:51:52;102430.45;;;15.77;100.00
48404;BME280;34202;52.536;6.042;2023-08-21T04:56:52;102421.32;;;15.76;100.00
48404;BME280;34202;52.536;6.042;2023-08-21T05:01:53;102421.83;;;15.75;100.00
48404;BME280;34202;52.536;6.042;2023-08-21T05:06:53;102423.05;;;15.74;100.00
48404;BME280;34202;52.536;6.042;2023-08-21T05:11:55;102424.06;;;15.73;100.00
48404;BME280;34202;52.536;6.042;2023-08-21T05:16:57;102425.64;;;15.73;100.00
48404;BME280;34202;52.536;6.042;2023-08-21T05:21:59;102425.52;;;15.74;100.00
48404;BME280;34202;52.536;6.042;2023-08-21T05:26:59;102432.02;;;15.75;100.00
48404;BME280;34202;52.536;6.042;2023-08-21T05:32:00;102435.73;;;15.77;100.00
48404;BME280;34202;52.536;6.042;2023-08-21T05:37:00;102443.64;;;15.78;100.00
48404;BME280;34202;52.536;6.042;2023-08-21T05:42:01;102445.77;;;15.81;100.00
48404;BME280;34202;52.536;6.042;2023-08-21T05:47:01;102450.03;;;15.85;100.00
48404;BME280;34202;52.536;6.042;2023-08-21T05:52:02;102449.73;;;15.92;100.00
48404;BME280;34202;52.536;6.042;2023-08-21T05:57:03;102454.21;;;15.99;100.00
48404;BME280;34202;52.536;6.042;2023-08-21T06:02:03;102455.70;;;16.09;100.00
48404;BME280;34202;52.536;6.042;2023-08-21T06:07:04;102455.80;;;16.18;100.00
48404;BME280;34202;52.536;6.042;2023-08-21T06:12:05;102460.61;;;16.27;100.00
48404;BME280;34202;52.536;6.042;2023-08-21T06:17:05;102461.04;;;16.35;100.00
48404;BME280;34202;52.536;6.042;2023-08-21T06:22:07;102459.70;;;16.44;100.00
48404;BME280;34202;52.536;6.042;2023-08-21T06:27:07;102453.81;;;16.56;100.00
48404;BME280;34202;52.536;6.042;2023-08-21T06:32:08;102452.52;;;16.69;100.00
48404;BME280;34202;52.536;6.042;2023-08-21T06:37:09;102449.11;;;16.84;100.00
48404;BME280;34202;52.536;6.042;2023-08-21T06:42:10;102450.80;;;17.00;100.00
48404;BME280;34202;52.536;6.042;2023-08-21T06:47:10;102454.41;;;17.17;100.00
48404;BME280;34202;52.536;6.042;2023-08-21T06:52:11;102453.44;;;17.34;100.00
48404;BME280;34202;52.536;6.042;2023-08-21T06:57:11;102452.30;;;17.55;100.00
48404;BME280;34202;52.536;6.042;2023-08-21T07:02:12;102455.52;;;17.77;100.00
48404;BME280;34202;52.536;6.042;2023-08-21T07:07:12;102457.89;;;17.98;100.00
48404;BME280;34202;52.536;6.042;2023-08-21T07:12:13;102458.44;;;18.17;100.00
48404;BME280;34202;52.536;6.042;2023-08-21T07:17:13;102460.91;;;18.37;100.00
48404;BME280;34202;52.536;6.042;2023-08-21T07:22:14;102454.73;;;18.62;100.00
48404;BME280;34202;52.536;6.042;2023-08-21T07:27:14;102459.83;;;18.88;100.00
48404;BME280;34202;52.536;6.042;2023-08-21T07:32:15;102456.05;;;19.14;100.00
48404;BME280;34202;52.536;6.042;2023-08-21T07:37:15;102454.55;;;19.39;100.00
48404;BME280;34202;52.536;6.042;2023-08-21T07:42:16;102449.52;;;19.60;100.00
48404;BME280;34202;52.536;6.042;2023-08-21T07:47:16;102445.68;;;19.84;100.00
48404;BME280;34202;52.536;6.042;2023-08-21T07:52:17;102449.94;;;20.08;100.00
48404;BME280;34202;52.536;6.042;2023-08-21T07:57:17;102458.05;;;20.32;100.00
48404;BME280;34202;52.536;6.042;2023-08-21T08:02:18;102463.89;;;20.54;100.00
48404;BME280;34202;52.536;6.042;2023-08-21T08:07:18;102462.16;;;20.72;100.00
48404;BME280;34202;52.536;6.042;2023-08-21T08:12:19;102466.58;;;20.88;100.00
48404;BME280;34202;52.536;6.042;2023-08-21T08:17:20;102470.41;;;21.10;100.00
48404;BME280;34202;52.536;6.042;2023-08-21T08:22:20;102464.83;;;21.33;99.87
48404;BME280;34202;52.536;6.042;2023-08-21T08:27:21;102471.15;;;21.55;98.27
48404;BME280;34202;52.536;6.042;2023-08-21T08:32:21;102471.57;;;21.76;97.06
48404;BME280;34202;52.536;6.042;2023-08-21T08:37:22;102474.06;;;21.99;96.77
48404;BME280;34202;52.536;6.042;2023-08-21T08:42:22;102475.13;;;22.23;95.97
48404;BME280;34202;52.536;6.042;2023-08-21T08:47:23;102477.23;;;22.46;94.87
48404;BME280;34202;52.536;6.042;2023-08-21T08:52:26;102478.88;;;22.73;94.43
48404;BME280;34202;52.536;6.042;2023-08-21T08:57:26;102480.91;;;22.98;93.65
48404;BME280;34202;52.536;6.042;2023-08-21T09:02:27;102472.20;;;23.27;93.37
48404;BME280;34202;52.536;6.042;2023-08-21T09:07:28;102472.31;;;23.55;92.23
48404;BME280;34202;52.536;6.042;2023-08-21T09:12:31;102471.56;;;23.81;90.57
48404;BME280;34202;52.536;6.042;2023-08-21T09:17:33;102469.73;;;24.08;88.72
48404;BME280;34202;52.536;6.042;2023-08-21T09:22:33;102467.59;;;24.29;86.67
48404;BME280;34202;52.536;6.042;2023-08-21T09:27:35;102469.58;;;24.50;85.55
48404;BME280;34202;52.536;6.042;2023-08-21T09:32:56;102467.75;;;24.72;84.58
48404;BME280;34202;52.536;6.042;2023-08-21T09:37:57;102471.67;;;24.92;82.23
48404;BME280;34202;52.536;6.042;2023-08-21T09:42:58;102462.27;;;25.10;80.35
48404;BME280;34202;52.536;6.042;2023-08-21T09:47:59;102462.38;;;25.31;80.05
48404;BME280;34202;52.536;6.042;2023-08-21T09:53:02;102468.30;;;25.54;78.49
48404;BME280;34202;52.536;6.042;2023-08-21T09:58:03;102465.55;;;25.74;77.73
48404;BME280;34202;52.536;6.042;2023-08-21T10:03:07;102457.48;;;25.93;76.79
48404;BME280;34202;52.536;6.042;2023-08-21T10:08:09;102454.05;;;26.11;75.75
48404;BME280;34202;52.536;6.042;2023-08-21T10:13:10;102455.63;;;26.28;74.48
48404;BME280;34202;52.536;6.042;2023-08-21T10:18:24;102450.14;;;26.42;73.06
48404;BME280;34202;52.536;6.042;2023-08-21T10:23:30;102440.27;;;26.59;72.76
48404;BME280;34202;52.536;6.042;2023-08-21T10:28:54;102439.23;;;26.79;71.36
48404;BME280;34202;52.536;6.042;2023-08-21T10:33:55;102441.83;;;26.96;69.72
48404;BME280;34202;52.536;6.042;2023-08-21T10:38:58;102434.38;;;27.13;69.93
48404;BME280;34202;52.536;6.042;2023-08-21T10:43:59;102433.41;;;27.35;69.12
48404;BME280;34202;52.536;6.042;2023-08-21T10:49:00;102435.29;;;27.51;67.89
48404;BME280;34202;52.536;6.042;2023-08-21T10:54:10;102442.55;;;27.66;67.14
48404;BME280;34202;52.536;6.042;2023-08-21T10:59:11;102448.53;;;27.82;66.55
48404;BME280;34202;52.536;6.042;2023-08-21T11:04:12;102445.33;;;27.95;64.83
48404;BME280;34202;52.536;6.042;2023-08-21T11:09:13;102444.27;;;28.08;64.57
48404;BME280;34202;52.536;6.042;2023-08-21T11:14:13;102447.84;;;28.17;63.41
48404;BME280;34202;52.536;6.042;2023-08-21T11:19:14;102440.10;;;28.26;63.14
48404;BME280;34202;52.536;6.042;2023-08-21T11:24:14;102448.51;;;28.40;62.82
48404;BME280;34202;52.536;6.042;2023-08-21T11:29:16;102448.04;;;28.50;61.73
48404;BME280;34202;52.536;6.042;2023-08-21T11:34:19;102445.67;;;28.60;60.92
48404;BME280;34202;52.536;6.042;2023-08-21T11:39:20;102437.61;;;28.68;58.99
48404;BME280;34202;52.536;6.042;2023-08-21T11:44:22;102434.59;;;28.72;58.35
48404;BME280;34202;52.536;6.042;2023-08-21T11:49:23;102436.50;;;28.81;58.23
48404;BME280;34202;52.536;6.042;2023-08-21T11:54:24;102433.88;;;28.91;57.07
48404;BME280;34202;52.536;6.042;2023-08-21T11:59:24;102429.67;;;29.01;56.84
48404;BME280;34202;52.536;6.042;2023-08-21T12:04:25;102425.09;;;29.11;55.98
48404;BME280;34202;52.536;6.042;2023-08-21T12:09:25;102422.36;;;29.28;56.00
48404;BME280;34202;52.536;6.042;2023-08-21T12:14:28;102417.84;;;29.43;55.44
48404;BME280;34202;52.536;6.042;2023-08-21T12:19:29;102413.87;;;29.55;54.91
48404;BME280;34202;52.536;6.042;2023-08-21T12:24:30;102409.21;;;29.66;54.67
48404;BME280;34202;52.536;6.042;2023-08-21T12:29:31;102411.25;;;29.72;53.25
48404;BME280;34202;52.536;6.042;2023-08-21T12:34:31;102407.84;;;29.77;52.84
48404;BME280;34202;52.536;6.042;2023-08-21T12:39:32;102409.09;;;29.84;52.75
48404;BME280;34202;52.536;6.042;2023-08-21T12:44:33;102408.92;;;29.91;53.13
48404;BME280;34202;52.536;6.042;2023-08-21T12:49:34;102411.16;;;30.00;52.68
48404;BME280;34202;52.536;6.042;2023-08-21T12:54:35;102404.81;;;30.01;52.49
48404;BME280;34202;52.536;6.042;2023-08-21T12:59:36;102397.64;;;29.94;52.06
48404;BME280;34202;52.536;6.042;2023-08-21T13:04:36;102393.92;;;30.00;52.69
48404;BME280;34202;52.536;6.042;2023-08-21T13:09:37;102390.02;;;30.06;52.39
48404;BME280;34202;52.536;6.042;2023-08-21T13:14:37;102389.02;;;30.11;51.84
48404;BME280;34202;52.536;6.042;2023-08-21T13:19:38;102385.27;;;30.15;51.74
48404;BME280;34202;52.536;6.042;2023-08-21T13:24:39;102376.61;;;30.19;51.19
48404;BME280;34202;52.536;6.042;2023-08-21T13:29:39;102373.67;;;30.23;51.27
48404;BME280;34202;52.536;6.042;2023-08-21T13:34:40;102369.08;;;30.29;50.99
48404;BME280;34202;52.536;6.042;2023-08-21T13:39:40;102375.70;;;30.33;50.44
48404;BME280;34202;52.536;6.042;2023-08-21T13:44:41;102385.13;;;30.35;49.43
48404;BME280;34202;52.536;6.042;2023-08-21T13:49:41;102383.08;;;30.29;48.61
48404;BME280;34202;52.536;6.042;2023-08-21T13:54:41;102372.20;;;30.18;48.32
48404;BME280;34202;52.536;6.042;2023-08-21T13:59:42;102363.73;;;30.18;49.46
48404;BME280;34202;52.536;6.042;2023-08-21T14:04:42;102363.48;;;30.26;49.87
48404;BME280;34202;52.536;6.042;2023-08-21T14:09:43;102365.48;;;30.36;49.90
48404;BME280;34202;52.536;6.042;2023-08-21T14:14:43;102365.55;;;30.42;49.50
48404;BME280;34202;52.536;6.042;2023-08-21T14:19:44;102358.91;;;30.42;48.76
48404;BME280;34202;52.536;6.042;2023-08-21T14:24:44;102357.02;;;30.40;48.56
48404;BME280;34202;52.536;6.042;2023-08-21T14:29:45;102353.05;;;30.37;48.35
48404;BME280;34202;52.536;6.042;2023-08-21T14:34:45;102344.34;;;30.18;46.71
48404;BME280;34202;52.536;6.042;2023-08-21T14:39:47;102342.23;;;29.79;46.93
48404;BME280;34202;52.536;6.042;2023-08-21T14:44:47;102340.58;;;29.76;47.77
48404;BME280;34202;52.536;6.042;2023-08-21T14:49:48;102335.77;;;29.79;48.25
48404;BME280;34202;52.536;6.042;2023-08-21T14:54:50;102327.58;;;29.85;48.87
48404;BME280;34202;52.536;6.042;2023-08-21T14:59:51;102322.96;;;29.87;48.56
48404;BME280;34202;52.536;6.042;2023-08-21T15:04:52;102322.80;;;29.76;48.36
48404;BME280;34202;52.536;6.042;2023-08-21T15:09:52;102318.38;;;29.60;48.38
48404;BME280;34202;52.536;6.042;2023-08-21T15:14:53;102316.43;;;29.49;48.49
48404;BME280;34202;52.536;6.042;2023-08-21T15:19:53;102315.71;;;29.42;48.86
48404;BME280;34202;52.536;6.042;2023-08-21T15:24:54;102310.90;;;29.23;48.81
48404;BME280;34202;52.536;6.042;2023-08-21T15:29:55;102310.89;;;29.08;49.38
48404;BME280;34202;52.536;6.042;2023-08-21T15:34:55;102303.27;;;28.98;49.68
48404;BME280;34202;52.536;6.042;2023-08-21T15:39:55;102303.58;;;28.88;49.84
48404;BME280;34202;52.536;6.042;2023-08-21T15:44:56;102301.34;;;28.75;50.32
48404;BME280;34202;52.536;6.042;2023-08-21T15:49:56;102300.48;;;28.62;50.32
48404;BME280;34202;52.536;6.042;2023-08-21T15:54:57;102296.86;;;28.43;50.34
48404;BME280;34202;52.536;6.042;2023-08-21T15:59:57;102293.61;;;28.24;50.74
48404;BME280;34202;52.536;6.042;2023-08-21T16:04:58;102293.39;;;28.00;50.82
48404;BME280;34202;52.536;6.042;2023-08-21T16:09:58;102286.17;;;27.72;51.06
48404;BME280;34202;52.536;6.042;2023-08-21T16:14:59;102284.81;;;27.49;51.58
48404;BME280;34202;52.536;6.042;2023-08-21T16:19:59;102282.59;;;27.25;51.77
48404;BME280;34202;52.536;6.042;2023-08-21T16:25:05;102286.61;;;27.00;52.42
48404;BME280;34202;52.536;6.042;2023-08-21T16:30:07;102287.30;;;26.82;52.98
48404;BME280;34202;52.536;6.042;2023-08-21T16:35:09;102285.25;;;26.66;53.56
48404;BME280;34202;52.536;6.042;2023-08-21T16:40:11;102280.63;;;26.50;54.06
48404;BME280;34202;52.536;6.042;2023-08-21T16:45:12;102280.10;;;26.36;54.56
48404;BME280;34202;52.536;6.042;2023-08-21T16:50:14;102276.62;;;26.18;54.76
48404;BME280;34202;52.536;6.042;2023-08-21T16:55:14;102275.23;;;26.03;55.27
48404;BME280;34202;52.536;6.042;2023-08-21T17:00:15;102271.48;;;25.86;55.51
48404;BME280;34202;52.536;6.042;2023-08-21T17:05:16;102267.31;;;25.73;55.79
48404;BME280;34202;52.536;6.042;2023-08-21T17:10:17;102266.70;;;25.59;56.00
48404;BME280;34202;52.536;6.042;2023-08-21T17:15:18;102263.84;;;25.44;56.31
48404;BME280;34202;52.536;6.042;2023-08-21T17:20:19;102260.25;;;25.28;56.76
48404;BME280;34202;52.536;6.042;2023-08-21T17:25:20;102257.81;;;25.14;56.90
48404;BME280;34202;52.536;6.042;2023-08-21T17:30:21;102255.67;;;25.03;57.42
48404;BME280;34202;52.536;6.042;2023-08-21T17:35:21;102254.06;;;24.92;58.14
48404;BME280;34202;52.536;6.042;2023-08-21T17:40:21;102260.44;;;24.82;58.48
48404;BME280;34202;52.536;6.042;2023-08-21T17:45:22;102266.44;;;24.72;59.21
48404;BME280;34202;52.536;6.042;2023-08-21T17:50:23;102260.58;;;24.59;59.76
48404;BME280;34202;52.536;6.042;2023-08-21T17:55:24;102257.48;;;24.48;60.44
48404;BME280;34202;52.536;6.042;2023-08-21T18:00:25;102258.11;;;24.39;61.04
48404;BME280;34202;52.536;6.042;2023-08-21T18:05:26;102259.39;;;24.32;61.56
48404;BME280;34202;52.536;6.042;2023-08-21T18:10:26;102253.44;;;24.22;61.95
48404;BME280;34202;52.536;6.042;2023-08-21T18:15:27;102244.78;;;24.13;62.32
48404;BME280;34202;52.536;6.042;2023-08-21T18:20:50;102246.10;;;24.04;62.53
48404;BME280;34202;52.536;6.042;2023-08-21T18:25:52;102237.63;;;23.95;63.06
48404;BME280;34202;52.536;6.042;2023-08-21T18:30:55;102236.98;;;23.87;63.30
48404;BME280;34202;52.536;6.042;2023-08-21T18:35:58;102244.09;;;23.79;63.24
48404;BME280;34202;52.536;6.042;2023-08-21T18:40:59;102251.80;;;23.69;63.38
48404;BME280;34202;52.536;6.042;2023-08-21T18:46:00;102255.48;;;23.57;63.72
48404;BME280;34202;52.536;6.042;2023-08-21T18:51:01;102260.20;;;23.46;63.97
48404;BME280;34202;52.536;6.042;2023-08-21T18:56:01;102269.16;;;23.36;64.22
48404;BME280;34202;52.536;6.042;2023-08-21T19:01:02;102274.98;;;23.22;64.40
48404;BME280;34202;52.536;6.042;2023-08-21T19:06:02;102280.23;;;23.09;64.76
48404;BME280;34202;52.536;6.042;2023-08-21T19:11:03;102272.99;;;22.99;65.08
48404;BME280;34202;52.536;6.042;2023-08-21T19:16:04;102273.96;;;22.87;65.44
48404;BME280;34202;52.536;6.042;2023-08-21T19:21:05;102281.31;;;22.76;65.94
48404;BME280;34202;52.536;6.042;2023-08-21T19:26:05;102272.67;;;22.65;66.35
48404;BME280;34202;52.536;6.042;2023-08-21T19:31:07;102263.16;;;22.53;66.69
48404;BME280;34202;52.536;6.042;2023-08-21T19:36:13;102267.31;;;22.41;67.19
48404;BME280;34202;52.536;6.042;2023-08-21T19:41:13;102270.73;;;22.19;67.66
48404;BME280;34202;52.536;6.042;2023-08-21T19:46:14;102280.81;;;22.00;68.51
48404;BME280;34202;52.536;6.042;2023-08-21T19:51:14;102288.05;;;21.93;69.43
48404;BME280;34202;52.536;6.042;2023-08-21T19:56:15;102294.53;;;21.87;70.03
48404;BME280;34202;52.536;6.042;2023-08-21T20:01:15;102297.42;;;21.84;70.44
48404;BME280;34202;52.536;6.042;2023-08-21T20:06:16;102291.82;;;21.80;71.01
48404;BME280;34202;52.536;6.042;2023-08-21T20:11:16;102285.70;;;21.75;71.32
48404;BME280;34202;52.536;6.042;2023-08-21T20:16:17;102282.97;;;21.69;71.75
48404;BME280;34202;52.536;6.042;2023-08-21T20:21:17;102277.04;;;21.64;72.09
48404;BME280;34202;52.536;6.042;2023-08-21T20:26:21;102281.04;;;21.57;72.45
48404;BME280;34202;52.536;6.042;2023-08-21T20:31:24;102271.23;;;21.50;72.82
48404;BME280;34202;52.536;6.042;2023-08-21T20:36:26;102269.73;;;21.42;73.12
48404;BME280;34202;52.536;6.042;2023-08-21T20:41:26;102268.27;;;21.33;73.65
48404;BME280;34202;52.536;6.042;2023-08-21T20:46:27;102271.60;;;21.25;74.04
48404;BME280;34202;52.536;6.042;2023-08-21T20:51:28;102271.89;;;21.16;74.69
48404;BME280;34202;52.536;6.042;2023-08-21T20:56:28;102276.63;;;21.07;75.17
48404;BME280;34202;52.536;6.042;2023-08-21T21:01:29;102279.59;;;20.98;75.77
48404;BME280;34202;52.536;6.042;2023-08-21T21:06:29;102289.27;;;20.89;75.82
48404;BME280;34202;52.536;6.042;2023-08-21T21:11:30;102292.23;;;20.79;75.88
48404;BME280;34202;52.536;6.042;2023-08-21T21:16:31;102289.71;;;20.69;76.28
48404;BME280;34202;52.536;6.042;2023-08-21T21:21:31;102277.77;;;20.61;76.80
48404;BME280;34202;52.536;6.042;2023-08-21T21:26:32;102265.47;;;20.53;77.46
48404;BME280;34202;52.536;6.042;2023-08-21T21:31:34;102265.55;;;20.46;77.81
48404;BME280;34202;52.536;6.042;2023-08-21T21:36:35;102267.95;;;20.38;78.24
48404;BME280;34202;52.536;6.042;2023-08-21T21:41:40;102273.34;;;20.30;78.76
48404;BME280;34202;52.536;6.042;2023-08-21T21:46:41;102267.06;;;20.21;79.36
48404;BME280;34202;52.536;6.042;2023-08-21T21:51:41;102258.30;;;20.15;79.70
48404;BME280;34202;52.536;6.042;2023-08-21T21:56:42;102259.61;;;20.07;80.26
48404;BME280;34202;52.536;6.042;2023-08-21T22:01:42;102259.51;;;20.00;80.47
48404;BME280;34202;52.536;6.042;2023-08-21T22:06:43;102255.00;;;19.93;80.89
48404;BME280;34202;52.536;6.042;2023-08-21T22:11:43;102250.11;;;19.86;81.50
48404;BME280;34202;52.536;6.042;2023-08-21T22:16:44;102244.88;;;19.78;81.70
48404;BME280;34202;52.536;6.042;2023-08-21T22:21:44;102241.23;;;19.71;82.15
48404;BME280;34202;52.536;6.042;2023-08-21T22:26:46;102238.27;;;19.63;82.71
48404;BME280;34202;52.536;6.042;2023-08-21T22:31:46;102244.88;;;19.56;83.10
48404;BME280;34202;52.536;6.042;2023-08-21T22:36:46;102239.11;;;19.48;83.50
48404;BME280;34202;52.536;6.042;2023-08-21T22:41:47;102235.27;;;19.41;84.00
48404;BME280;34202;52.536;6.042;2023-08-21T22:46:48;102231.27;;;19.34;84.39
48404;BME280;34202;52.536;6.042;2023-08-21T22:51:51;102235.91;;;19.27;85.07
48404;BME280;34202;52.536;6.042;2023-08-21T22:56:52;102254.83;;;19.22;85.56
48404;BME280;34202;52.536;6.042;2023-08-21T23:01:53;102262.46;;;19.16;86.06
48404;BME280;34202;52.536;6.042;2023-08-21T23:06:53;102264.80;;;19.10;86.33
48404;BME280;34202;52.536;6.042;2023-08-21T23:11:53;102259.00;;;19.04;86.34
48404;BME280;34202;52.536;6.042;2023-08-21T23:16:55;102253.41;;;18.96;85.94
48404;BME280;34202;52.536;6.042;2023-08-21T23:21:56;102247.43;;;18.91;86.88
48404;BME280;34202;52.536;6.042;2023-08-21T23:26:56;102244.47;;;18.86;87.51
48404;BME280;34202;52.536;6.042;2023-08-21T23:31:57;102227.03;;;18.82;87.96
48404;BME280;34202;52.536;6.042;2023-08-21T23:36:58;102213.26;;;18.78;88.46
48404;BME280;34202;52.536;6.042;2023-08-21T23:41:58;102182.44;;;18.73;89.15
48404;BME280;34202;52.536;6.042;2023-08-21T23:46:59;102179.98;;;18.69;89.80
48404;BME280;34202;52.536;6.042;2023-08-21T23:51:59;102163.77;;;18.67;90.46
48404;BME280;34202;52.536;6.042;2023-08-21T23:56:59;102184.06;;;18.64;90.75
